Reston, Canada
Current Conditions -  °F | °C
As of 7:00 AM on Friday 28 Nov 2014 (Local Time) from CYBR Reporting Station
Light Snow Light Snow  
Wind Chill: -13°   Ceiling: 7500
Heat Index:   Visibility: 5mi
Dew Point:   Wind: 20mph
Humidity: 85%   Direction: 80°E
Pressure: 29.95"   Gusts: NA
Location:  49.55°N, 101.08°W
Report Text: CYBR 281300Z 08017KT 5SM -SN DRSN FEW011 SCT036 OVC075 M14/M16 A2995 RMK SC2SC2AC4 SLP180
Loading
Personal Weather Stations






























Interactive Weather Map New forecast layout! Learn more

10-Day Weather Forecast

Advertisements
Track Severe Weather on mobile